Time;durP1;ratioP1;P1;durP2;ratioP2;P2;SDS_P1;SDS_P2;PMS_P1;PMS_P2;Temp;Humidity;BMP_temperature;BMP_pressure;BME280_temperature;BME280_humidity;BME280_pressure;Samples;Min_cycle;Max_cycle;Signal;HPM_P1;HPM_P2
2021/10/24 00:00:03;;;;;;;10.85;5.97;;;8.90;99.90;;;;;;4154117;28;20041;-71
2021/10/24 00:02:03;;;;;;;11.13;5.65;;;8.90;99.90;;;;;;4154433;28;20033;-71
2021/10/24 00:04:04;;;;;;;8.43;5.45;;;8.90;99.90;;;;;;4154613;28;20159;-71
2021/10/24 00:06:04;;;;;;;11.23;5.85;;;8.90;99.90;;;;;;4151893;28;20117;-71
2021/10/24 00:08:05;;;;;;;12.70;7.05;;;8.90;99.90;;;;;;4136411;28;20643;-72
2021/10/24 00:10:07;;;;;;;12.35;6.40;;;8.90;99.90;;;;;;4141578;28;20065;-71
2021/10/24 00:12:07;;;;;;;8.55;5.28;;;9.00;99.90;;;;;;4151766;28;20032;-71
2021/10/24 00:14:08;;;;;;;9.27;5.40;;;9.00;99.90;;;;;;4149279;28;20033;-71
2021/10/24 00:16:08;;;;;;;12.60;5.50;;;9.00;99.90;;;;;;4154347;28;20120;-71
2021/10/24 00:18:09;;;;;;;9.57;5.57;;;9.00;99.90;;;;;;4148754;28;20080;-71
2021/10/24 00:20:10;;;;;;;13.40;5.55;;;9.00;99.90;;;;;;4151276;28;20091;-71
2021/10/24 00:22:11;;;;;;;9.57;5.28;;;9.00;99.90;;;;;;4149260;28;20055;-71
2021/10/24 00:24:11;;;;;;;7.30;4.97;;;9.00;99.90;;;;;;4151736;28;20108;-71
2021/10/24 00:26:12;;;;;;;11.43;5.75;;;8.90;99.90;;;;;;4147173;28;20508;-71
2021/10/24 00:28:12;;;;;;;9.13;5.88;;;9.00;99.90;;;;;;4152195;28;20520;-71
2021/10/24 00:30:13;;;;;;;12.35;5.85;;;9.00;99.90;;;;;;4148338;28;20038;-71
2021/10/24 00:32:14;;;;;;;8.98;5.22;;;9.00;99.90;;;;;;4149708;28;20022;-71
2021/10/24 00:34:14;;;;;;;7.07;4.95;;;9.00;99.90;;;;;;4147248;28;20014;-71
2021/10/24 00:36:15;;;;;;;9.30;5.47;;;9.00;99.90;;;;;;4151964;28;20034;-71
2021/10/24 00:38:15;;;;;;;8.45;5.32;;;9.00;99.90;;;;;;4155113;28;20026;-71
2021/10/24 00:40:16;;;;;;;7.10;5.00;;;9.00;99.90;;;;;;4154540;28;20026;-71
2021/10/24 00:42:16;;;;;;;10.20;5.70;;;9.00;99.90;;;;;;4153010;28;20103;-71
2021/10/24 00:44:18;;;;;;;10.98;5.78;;;9.00;99.90;;;;;;4155411;28;20111;-71
2021/10/24 00:46:19;;;;;;;8.45;4.80;;;9.00;99.90;;;;;;4154403;28;20033;-71
2021/10/24 00:48:19;;;;;;;10.52;5.75;;;9.00;99.90;;;;;;4155409;28;20113;-71
2021/10/24 00:50:22;;;;;;;7.85;5.20;;;9.00;99.90;;;;;;4152133;28;20030;-71
2021/10/24 00:52:22;;;;;;;10.52;5.20;;;9.00;99.90;;;;;;4157347;28;20508;-71
2021/10/24 00:54:25;;;;;;;11.57;6.22;;;9.00;99.90;;;;;;4155318;28;20076;-71
2021/10/24 00:56:26;;;;;;;12.40;5.90;;;9.00;99.90;;;;;;4176312;28;20025;-71
2021/10/24 00:58:27;;;;;;;9.88;5.68;;;9.00;99.90;;;;;;4153167;28;20347;-71
2021/10/24 01:00:28;;;;;;;7.63;5.45;;;9.00;99.90;;;;;;4153840;28;20507;-71
2021/10/24 01:02:28;;;;;;;11.35;5.80;;;9.00;99.90;;;;;;4153692;28;20025;-71
2021/10/24 01:04:29;;;;;;;10.55;5.35;;;9.00;99.90;;;;;;4149390;28;20459;-71
2021/10/24 01:06:37;;;;;;;12.98;6.15;;;8.90;99.90;;;;;;4150370;28;20386;-71
2021/10/24 01:08:37;;;;;;;8.68;4.95;;;9.00;99.90;;;;;;4149770;28;20063;-71
2021/10/24 01:10:38;;;;;;;9.98;5.97;;;8.90;99.90;;;;;;4149907;28;20545;-71
2021/10/24 01:12:39;;;;;;;10.43;6.03;;;8.90;99.90;;;;;;4153512;28;20029;-71
2021/10/24 01:14:39;;;;;;;9.13;5.80;;;8.80;99.90;;;;;;4154180;28;20045;-71
2021/10/24 01:16:42;;;;;;;13.35;6.15;;;8.80;99.90;;;;;;4151973;28;20452;-71
2021/10/24 01:18:44;;;;;;;9.68;5.68;;;8.70;99.90;;;;;;4152128;28;20436;-71
2021/10/24 01:20:48;;;;;;;12.65;5.60;;;8.70;99.90;;;;;;4152343;28;20594;-71
2021/10/24 01:22:50;;;;;;;11.05;5.82;;;8.70;99.90;;;;;;4151006;28;20045;-71
2021/10/24 01:24:50;;;;;;;10.23;5.60;;;8.70;99.90;;;;;;4134979;28;20041;-71
2021/10/24 01:26:51;;;;;;;9.27;6.00;;;8.60;99.90;;;;;;4153554;28;20033;-71
2021/10/24 01:28:53;;;;;;;9.32;5.47;;;8.60;99.90;;;;;;4153598;28;20503;-71
2021/10/24 01:30:54;;;;;;;8.98;5.82;;;8.60;99.90;;;;;;4152125;28;20056;-71
2021/10/24 01:32:55;;;;;;;9.30;5.75;;;8.60;99.90;;;;;;4150562;28;20508;-71
2021/10/24 01:34:58;;;;;;;8.82;5.43;;;8.60;99.90;;;;;;4150181;28;20042;-71
2021/10/24 01:36:59;;;;;;;10.02;5.25;;;8.60;99.90;;;;;;4150731;28;20029;-71
2021/10/24 01:39:00;;;;;;;7.57;5.10;;;8.60;99.90;;;;;;4151161;28;20048;-71
2021/10/24 01:41:02;;;;;;;10.88;5.35;;;8.60;99.90;;;;;;4150080;28;20543;-71
2021/10/24 01:43:02;;;;;;;9.23;5.10;;;8.60;99.90;;;;;;4153802;28;20040;-71
2021/10/24 01:45:09;;;;;;;7.70;5.32;;;8.70;99.90;;;;;;4151730;28;20440;-72
2021/10/24 01:47:09;;;;;;;11.57;5.72;;;8.60;99.90;;;;;;4149723;28;20038;-71
2021/10/24 01:49:10;;;;;;;8.95;5.13;;;8.60;99.90;;;;;;4153842;28;20676;-71
2021/10/24 01:51:13;;;;;;;8.98;5.07;;;8.60;99.90;;;;;;4150567;28;20041;-71
2021/10/24 01:53:24;;;;;;;;;;;8.60;99.90;;;;;;4153301;28;20033;-71
2021/10/24 01:55:25;;;;;;;10.50;5.03;;;8.60;99.90;;;;;;4149836;28;19942;-71
2021/10/24 01:57:26;;;;;;;9.93;5.15;;;8.60;99.90;;;;;;4150750;28;20068;-71
2021/10/24 01:59:26;;;;;;;9.02;5.43;;;8.50;99.90;;;;;;4152519;28;20071;-71
2021/10/24 02:01:27;;;;;;;10.13;5.55;;;8.50;99.90;;;;;;4150292;28;20042;-71
2021/10/24 02:03:27;;;;;;;10.68;5.45;;;8.50;99.90;;;;;;4153728;28;20052;-71
2021/10/24 02:05:28;;;;;;;10.15;6.18;;;8.50;99.90;;;;;;4151427;28;20029;-71
2021/10/24 02:07:29;;;;;;;9.65;5.47;;;8.50;99.90;;;;;;4149050;28;20048;-71
2021/10/24 02:09:29;;;;;;;8.57;5.03;;;8.50;99.90;;;;;;4153209;28;20041;-71
2021/10/24 02:11:30;;;;;;;9.95;5.38;;;8.50;99.90;;;;;;4152549;28;20038;-71
2021/10/24 02:13:31;;;;;;;7.68;5.22;;;8.50;99.90;;;;;;4152466;28;20033;-71
2021/10/24 02:15:33;;;;;;;12.25;5.85;;;8.50;99.90;;;;;;4155982;28;20041;-71
2021/10/24 02:17:34;;;;;;;7.78;5.20;;;8.50;99.90;;;;;;4151009;28;20128;-71
2021/10/24 02:19:35;;;;;;;9.02;5.50;;;8.60;99.90;;;;;;4153895;28;20524;-71
2021/10/24 02:21:35;;;;;;;11.70;6.05;;;8.60;99.90;;;;;;4151454;28;20041;-71
2021/10/24 02:23:36;;;;;;;9.25;5.63;;;8.50;99.90;;;;;;4153874;28;20041;-71
2021/10/24 02:25:38;;;;;;;9.10;5.78;;;8.50;99.90;;;;;;4150596;28;20426;-71
2021/10/24 02:27:39;;;;;;;9.05;5.60;;;8.50;99.90;;;;;;4153002;28;20033;-71
2021/10/24 02:29:39;;;;;;;12.20;6.57;;;8.50;99.90;;;;;;4134327;28;20285;-72
2021/10/24 02:31:40;;;;;;;11.75;5.93;;;8.50;99.90;;;;;;4152766;28;20029;-72
2021/10/24 02:33:40;;;;;;;11.55;6.13;;;8.50;99.90;;;;;;4152946;28;20051;-72
2021/10/24 02:35:41;;;;;;;11.05;5.90;;;8.50;99.90;;;;;;4149230;28;20061;-71
2021/10/24 02:37:44;;;;;;;12.40;5.38;;;8.50;99.90;;;;;;4152645;28;20614;-71
2021/10/24 02:39:44;;;;;;;8.68;5.55;;;8.50;99.90;;;;;;4153965;28;20120;-71
2021/10/24 02:41:45;;;;;;;14.80;6.38;;;8.50;99.90;;;;;;4153283;28;20096;-71
2021/10/24 02:43:46;;;;;;;12.02;6.13;;;8.50;99.90;;;;;;4151795;28;20551;-71
2021/10/24 02:45:47;;;;;;;7.80;5.43;;;8.50;99.90;;;;;;4152076;28;20030;-72
2021/10/24 02:47:47;;;;;;;12.00;6.13;;;8.50;99.90;;;;;;4153339;28;20033;-71
2021/10/24 02:49:48;;;;;;;9.98;5.60;;;8.40;99.90;;;;;;4152439;28;20342;-71
2021/10/24 02:51:49;;;;;;;10.07;6.25;;;8.40;99.90;;;;;;4152970;28;20068;-71
2021/10/24 02:53:49;;;;;;;9.65;5.57;;;8.40;99.90;;;;;;4151164;28;20042;-72
2021/10/24 02:55:50;;;;;;;10.77;5.93;;;8.40;99.90;;;;;;4151093;28;20052;-71
2021/10/24 02:57:51;;;;;;;12.82;5.90;;;8.40;99.90;;;;;;4149261;28;20033;-71
2021/10/24 02:59:51;;;;;;;11.40;5.80;;;8.30;99.90;;;;;;4150749;28;20281;-71
2021/10/24 03:01:52;;;;;;;11.82;6.28;;;8.30;99.90;;;;;;4149990;28;20113;-71
2021/10/24 03:03:52;;;;;;;11.32;6.03;;;8.30;99.90;;;;;;4151179;28;20417;-71
2021/10/24 03:05:53;;;;;;;8.77;5.82;;;8.30;99.90;;;;;;4149668;28;20550;-72
2021/10/24 03:07:53;;;;;;;12.15;5.70;;;8.30;99.90;;;;;;4149341;28;20034;-71
2021/10/24 03:09:54;;;;;;;10.02;6.07;;;8.30;99.90;;;;;;4152843;28;20021;-71
2021/10/24 03:11:55;;;;;;;9.45;5.32;;;8.30;99.90;;;;;;4152113;28;20060;-71
2021/10/24 03:13:55;;;;;;;9.52;5.45;;;8.30;99.90;;;;;;4150185;28;20442;-71
2021/10/24 03:15:56;;;;;;;10.63;5.57;;;8.30;99.90;;;;;;4152201;28;20083;-71
2021/10/24 03:17:56;;;;;;;9.85;5.47;;;8.30;99.90;;;;;;4144414;28;20037;-71
2021/10/24 03:19:57;;;;;;;10.38;5.70;;;8.30;99.90;;;;;;4150752;28;20099;-71
2021/10/24 03:21:58;;;;;;;12.90;6.32;;;8.30;99.90;;;;;;4152201;28;20532;-71
2021/10/24 03:24:01;;;;;;;11.57;6.47;;;8.30;99.90;;;;;;4150706;28;20116;-72
2021/10/24 03:26:01;;;;;;;7.50;5.40;;;8.30;99.90;;;;;;4152774;28;20032;-71
2021/10/24 03:28:02;;;;;;;9.43;5.78;;;8.40;99.90;;;;;;4150069;28;20042;-71
2021/10/24 03:30:03;;;;;;;14.48;6.00;;;8.40;99.90;;;;;;4148863;28;20489;-71
2021/10/24 03:32:04;;;;;;;12.93;6.60;;;8.30;99.90;;;;;;4148698;28;20038;-71
2021/10/24 03:34:05;;;;;;;10.73;6.32;;;8.20;99.90;;;;;;4156353;28;20516;-71
2021/10/24 03:36:06;;;;;;;9.45;5.60;;;8.30;99.90;;;;;;4148300;28;20164;-71
2021/10/24 03:38:06;;;;;;;13.70;5.82;;;8.30;99.90;;;;;;4149562;28;20033;-71
2021/10/24 03:40:07;;;;;;;9.43;5.55;;;8.20;99.90;;;;;;4151160;28;20049;-72
2021/10/24 03:42:09;;;;;;;8.57;5.45;;;8.30;99.90;;;;;;4152701;28;20056;-72
2021/10/24 03:44:09;;;;;;;10.20;5.28;;;8.30;99.90;;;;;;4152476;28;20441;-72
2021/10/24 03:46:10;;;;;;;11.02;5.68;;;8.30;99.90;;;;;;4148779;28;20045;-71
2021/10/24 03:48:11;;;;;;;10.57;6.05;;;8.20;99.90;;;;;;4150032;28;20061;-71
2021/10/24 03:50:11;;;;;;;10.73;6.10;;;8.20;99.90;;;;;;4151517;28;20042;-71
2021/10/24 03:52:12;;;;;;;11.60;6.15;;;8.20;99.90;;;;;;4150381;28;20048;-71
2021/10/24 03:54:13;;;;;;;9.43;5.75;;;8.20;99.90;;;;;;4148125;28;20040;-72
2021/10/24 03:56:13;;;;;;;10.40;5.50;;;8.20;99.90;;;;;;4145837;28;20100;-71
2021/10/24 03:58:15;;;;;;;9.30;5.82;;;8.20;99.90;;;;;;4151065;28;20124;-71
2021/10/24 04:00:16;;;;;;;8.90;5.38;;;8.20;99.90;;;;;;4148482;28;20030;-71
2021/10/24 04:02:16;;;;;;;18.02;6.32;;;8.20;99.90;;;;;;4151805;28;20032;-71
2021/10/24 04:04:17;;;;;;;8.70;5.50;;;8.10;99.90;;;;;;4152997;28;20021;-71
2021/10/24 04:06:17;;;;;;;11.65;5.82;;;8.10;99.90;;;;;;4151632;28;20034;-71
2021/10/24 04:08:18;;;;;;;10.02;5.10;;;8.00;99.90;;;;;;4150600;28;20060;-71
2021/10/24 04:10:21;;;;;;;8.50;4.97;;;8.10;99.90;;;;;;4153033;28;20041;-71
2021/10/24 04:12:21;;;;;;;9.00;5.50;;;8.10;99.90;;;;;;4153557;28;20033;-71
2021/10/24 04:14:25;;;;;;;8.23;5.57;;;8.10;99.90;;;;;;4153551;28;20496;-71
2021/10/24 04:16:25;;;;;;;9.80;5.30;;;8.10;99.90;;;;;;4151356;28;20049;-72
2021/10/24 04:18:26;;;;;;;9.45;5.20;;;8.10;99.90;;;;;;4155180;28;20025;-71
2021/10/24 04:20:26;;;;;;;8.38;5.35;;;8.10;99.90;;;;;;4149457;28;20117;-71
2021/10/24 04:22:29;;;;;;;12.00;5.65;;;8.10;99.90;;;;;;4153661;28;20029;-71
2021/10/24 04:24:29;;;;;;;8.40;5.00;;;8.10;99.90;;;;;;4154436;28;20440;-71
2021/10/24 04:26:30;;;;;;;10.00;5.82;;;8.10;99.90;;;;;;4154472;28;20042;-72
2021/10/24 04:28:30;;;;;;;8.82;5.40;;;8.10;99.90;;;;;;4151904;28;20615;-71
2021/10/24 04:30:31;;;;;;;7.90;5.00;;;8.10;99.90;;;;;;4150535;28;20026;-71
2021/10/24 04:32:32;;;;;;;13.13;6.07;;;8.10;99.90;;;;;;4149774;28;20470;-72
2021/10/24 04:34:32;;;;;;;8.18;5.10;;;8.10;99.90;;;;;;4152391;28;20049;-71
2021/10/24 04:36:33;;;;;;;7.13;4.82;;;8.10;99.90;;;;;;4153849;28;20033;-72
2021/10/24 04:38:34;;;;;;;8.00;5.28;;;8.10;99.90;;;;;;4153912;28;20228;-71
2021/10/24 04:40:34;;;;;;;8.55;5.57;;;8.10;99.90;;;;;;4147513;28;20085;-71
2021/10/24 04:42:35;;;;;;;7.25;4.57;;;8.10;99.90;;;;;;4155535;28;20041;-71
2021/10/24 04:44:36;;;;;;;7.93;5.25;;;8.10;99.90;;;;;;4155714;28;20497;-71
2021/10/24 04:46:37;;;;;;;9.55;5.82;;;8.10;99.90;;;;;;4152598;28;20651;-71
2021/10/24 04:48:38;;;;;;;12.63;5.57;;;8.10;99.90;;;;;;4152453;28;20037;-71
2021/10/24 04:50:39;;;;;;;11.20;5.97;;;8.10;99.90;;;;;;4150272;28;20447;-71
2021/10/24 04:52:40;;;;;;;7.43;5.10;;;8.10;99.90;;;;;;4152151;28;20071;-72
2021/10/24 04:54:40;;;;;;;12.57;5.75;;;8.10;99.90;;;;;;4150903;28;20769;-72
2021/10/24 04:56:41;;;;;;;8.63;5.63;;;8.10;99.90;;;;;;4151736;28;20112;-71
2021/10/24 04:58:41;;;;;;;8.18;5.60;;;8.00;99.90;;;;;;4153532;28;20055;-71
2021/10/24 05:00:42;;;;;;;9.93;5.72;;;8.10;99.90;;;;;;4152789;28;20095;-71
2021/10/24 05:02:42;;;;;;;11.27;6.07;;;8.10;99.90;;;;;;4153833;28;20125;-71
2021/10/24 05:04:43;;;;;;;10.43;5.65;;;8.10;99.90;;;;;;4152288;28;20093;-71
2021/10/24 05:06:44;;;;;;;9.20;5.70;;;8.10;99.90;;;;;;4150900;28;20110;-71
2021/10/24 05:08:44;;;;;;;7.82;5.88;;;8.10;99.90;;;;;;4146485;28;20409;-72
2021/10/24 05:10:45;;;;;;;8.52;5.50;;;8.10;99.90;;;;;;4146892;28;20045;-71
2021/10/24 05:12:45;;;;;;;13.77;5.50;;;8.10;99.90;;;;;;4155958;28;20036;-71
2021/10/24 05:14:46;;;;;;;7.85;5.20;;;8.10;99.90;;;;;;4155513;28;20041;-71
2021/10/24 05:16:47;;;;;;;9.75;6.00;;;8.10;99.90;;;;;;4154824;28;20477;-71
2021/10/24 05:18:47;;;;;;;7.30;5.32;;;8.00;99.90;;;;;;4153814;28;20489;-71
2021/10/24 05:20:48;;;;;;;9.05;5.55;;;8.10;99.90;;;;;;4152609;28;20632;-71
2021/10/24 05:22:48;;;;;;;7.82;5.07;;;8.10;99.90;;;;;;4123657;28;20064;-72
2021/10/24 05:24:49;;;;;;;10.20;5.88;;;8.10;99.90;;;;;;4154600;28;20030;-71
2021/10/24 05:26:50;;;;;;;9.52;5.45;;;8.10;99.90;;;;;;4154009;28;20532;-71
2021/10/24 05:28:50;;;;;;;11.35;5.68;;;8.10;99.90;;;;;;4148903;28;20059;-71
2021/10/24 05:30:51;;;;;;;9.07;4.90;;;8.10;99.90;;;;;;4147160;28;20070;-71
2021/10/24 05:32:51;;;;;;;9.52;5.22;;;8.10;99.90;;;;;;4152843;28;20033;-71
2021/10/24 05:34:52;;;;;;;8.98;5.18;;;8.10;99.90;;;;;;4148276;28;20330;-71
2021/10/24 05:36:52;;;;;;;10.43;5.57;;;8.10;99.90;;;;;;4153040;28;20053;-71
2021/10/24 05:38:53;;;;;;;8.85;5.50;;;8.00;99.90;;;;;;4152115;28;20791;-71
2021/10/24 05:40:54;;;;;;;8.27;5.22;;;8.00;99.90;;;;;;4150664;28;20044;-71
2021/10/24 05:42:54;;;;;;;10.48;5.30;;;8.00;99.90;;;;;;4148201;28;20041;-71
2021/10/24 05:44:55;;;;;;;7.50;4.95;;;8.00;99.90;;;;;;4153029;28;20516;-71
2021/10/24 05:46:56;;;;;;;9.63;5.97;;;8.00;99.90;;;;;;4154252;28;20033;-71
2021/10/24 05:48:56;;;;;;;8.18;4.90;;;7.90;99.90;;;;;;4153842;28;20038;-71
2021/10/24 05:50:58;;;;;;;9.38;5.93;;;7.90;99.90;;;;;;4151887;28;20037;-71
2021/10/24 05:52:59;;;;;;;9.07;5.57;;;7.80;99.90;;;;;;4154375;28;20558;-71
2021/10/24 05:54:59;;;;;;;11.00;5.38;;;7.80;99.90;;;;;;4132144;28;20049;-71
2021/10/24 05:57:00;;;;;;;14.82;6.68;;;7.80;99.90;;;;;;4150653;28;20046;-71
2021/10/24 05:59:01;;;;;;;8.68;5.93;;;7.80;99.90;;;;;;4149764;28;20124;-71
2021/10/24 06:01:01;;;;;;;12.77;6.25;;;7.80;99.90;;;;;;4149671;28;20461;-71
2021/10/24 06:03:04;;;;;;;8.32;5.70;;;7.70;99.90;;;;;;4154316;28;20417;-71
2021/10/24 06:05:05;;;;;;;10.25;6.03;;;7.80;99.90;;;;;;4153522;28;20060;-71
2021/10/24 06:07:06;;;;;;;7.85;5.05;;;7.80;99.90;;;;;;4150136;28;20034;-72
2021/10/24 06:09:06;;;;;;;9.65;5.60;;;7.80;99.90;;;;;;4152571;28;20419;-72
2021/10/24 06:13:34;;;;;;;9.38;5.25;;;7.80;99.90;;;;;;4127239;28;20061;-72
2021/10/24 06:15:39;;;;;;;9.32;4.93;;;7.90;99.90;;;;;;4152194;28;20038;-72
2021/10/24 06:17:40;;;;;;;7.18;4.80;;;7.90;99.90;;;;;;4153286;28;20468;-72
2021/10/24 06:19:42;;;;;;;8.15;5.10;;;7.90;99.90;;;;;;4150849;28;20049;-72
2021/10/24 06:21:42;;;;;;;8.13;5.07;;;8.00;99.90;;;;;;4147937;28;20030;-72
2021/10/24 06:23:43;;;;;;;7.65;5.10;;;8.00;99.90;;;;;;4144427;28;20109;-72
2021/10/24 06:25:44;;;;;;;9.10;5.43;;;8.00;99.90;;;;;;4151302;28;20041;-72
2021/10/24 06:27:45;;;;;;;10.32;5.13;;;8.00;99.90;;;;;;4152017;28;20041;-72
2021/10/24 06:29:45;;;;;;;8.73;5.13;;;8.10;99.90;;;;;;4152640;28;20095;-72
2021/10/24 06:31:46;;;;;;;9.25;5.32;;;8.10;99.90;;;;;;4154007;28;20030;-73
2021/10/24 06:33:47;;;;;;;8.65;5.18;;;8.00;99.90;;;;;;4151616;28;20080;-72
2021/10/24 06:35:47;;;;;;;8.20;4.72;;;8.10;99.90;;;;;;4154806;28;20048;-72
2021/10/24 06:37:48;;;;;;;7.15;4.70;;;8.10;99.90;;;;;;4150968;28;20487;-72
2021/10/24 06:39:49;;;;;;;8.45;4.55;;;8.00;99.90;;;;;;4133906;28;20539;-72
2021/10/24 06:41:50;;;;;;;14.23;5.28;;;8.10;99.90;;;;;;4134291;28;20022;-72
2021/10/24 06:43:50;;;;;;;11.48;5.50;;;8.10;99.90;;;;;;4146280;28;20417;-72
2021/10/24 06:45:51;;;;;;;9.05;5.47;;;8.00;99.90;;;;;;4151615;28;20170;-72
2021/10/24 06:47:52;;;;;;;12.23;5.65;;;8.10;99.90;;;;;;4149733;28;20037;-72
2021/10/24 06:49:52;;;;;;;8.65;5.40;;;8.10;99.90;;;;;;4150573;28;20030;-72
2021/10/24 06:51:53;;;;;;;10.50;5.38;;;8.10;99.90;;;;;;4153292;28;20095;-72
2021/10/24 06:53:54;;;;;;;8.85;5.05;;;8.10;99.90;;;;;;4152212;28;20033;-72
2021/10/24 06:55:54;;;;;;;11.68;6.20;;;8.10;99.90;;;;;;4150695;28;20048;-72
2021/10/24 06:57:56;;;;;;;8.30;5.40;;;8.00;99.90;;;;;;4151591;28;20034;-72
2021/10/24 06:59:57;;;;;;;7.93;5.28;;;8.00;99.90;;;;;;4150697;28;20497;-72
2021/10/24 07:01:58;;;;;;;9.57;5.88;;;8.00;99.90;;;;;;4147962;28;20063;-72
2021/10/24 07:04:01;;;;;;;9.27;5.53;;;8.00;99.90;;;;;;4154053;28;20451;-72
2021/10/24 07:06:01;;;;;;;10.27;5.38;;;8.00;99.90;;;;;;4151565;28;20045;-72
2021/10/24 07:08:02;;;;;;;10.07;5.95;;;8.00;99.90;;;;;;4150266;28;20486;-72
2021/10/24 07:10:05;;;;;;;13.32;5.97;;;8.00;99.90;;;;;;4150743;28;20037;-73
2021/10/24 07:12:06;;;;;;;10.00;5.75;;;8.00;99.90;;;;;;4151299;28;20076;-73
2021/10/24 07:14:06;;;;;;;12.80;6.00;;;7.90;99.90;;;;;;4150230;28;20041;-73
2021/10/24 07:16:07;;;;;;;11.40;5.82;;;7.90;99.90;;;;;;4148862;28;20532;-73
2021/10/24 07:18:09;;;;;;;8.48;5.20;;;8.00;99.90;;;;;;4153421;28;20052;-73
2021/10/24 07:20:10;;;;;;;9.73;5.53;;;7.90;99.90;;;;;;4152095;28;20049;-73
2021/10/24 07:22:11;;;;;;;14.82;6.30;;;8.00;99.90;;;;;;4150516;28;20030;-73
2021/10/24 07:24:12;;;;;;;9.18;5.88;;;8.10;99.90;;;;;;4149708;28;20516;-73
2021/10/24 07:26:12;;;;;;;6.90;5.35;;;8.20;99.90;;;;;;4131899;28;20038;-73
2021/10/24 07:28:13;;;;;;;9.05;5.22;;;8.40;99.90;;;;;;4142426;28;20063;-73
2021/10/24 07:30:14;;;;;;;12.05;6.38;;;8.60;99.90;;;;;;4152177;28;20112;-73
2021/10/24 07:32:15;;;;;;;11.52;6.07;;;8.90;99.90;;;;;;4141467;28;20034;-73
2021/10/24 07:34:16;;;;;;;10.15;5.40;;;9.20;99.90;;;;;;4135274;28;20038;-73
2021/10/24 07:36:16;;;;;;;8.63;5.10;;;9.50;99.90;;;;;;4136365;28;20049;-73
2021/10/24 07:38:17;;;;;;;9.10;5.53;;;9.80;99.90;;;;;;4148638;28;20116;-73
2021/10/24 07:40:18;;;;;;;12.68;5.90;;;10.00;99.90;;;;;;4150467;28;20033;-73
2021/10/24 07:42:19;;;;;;;10.60;5.45;;;10.30;99.90;;;;;;4153323;28;20464;-73
2021/10/24 07:44:19;;;;;;;9.82;5.47;;;10.50;99.90;;;;;;4155129;28;20498;-73
2021/10/24 07:46:20;;;;;;;6.75;4.60;;;10.70;99.90;;;;;;4136595;28;20061;-73
2021/10/24 07:48:22;;;;;;;6.93;4.90;;;11.00;99.90;;;;;;4136755;28;20125;-72
2021/10/24 07:50:26;;;;;;;9.38;5.22;;;11.30;99.90;;;;;;4153340;28;20037;-73
2021/10/24 07:52:27;;;;;;;7.60;4.50;;;11.50;99.90;;;;;;4155002;28;20511;-73
2021/10/24 07:54:27;;;;;;;8.20;4.97;;;11.80;99.90;;;;;;4154786;28;20041;-69
2021/10/24 07:56:28;;;;;;;10.23;5.28;;;12.00;99.90;;;;;;4153614;28;20034;-70
2021/10/24 07:58:29;;;;;;;12.35;5.32;;;12.20;99.90;;;;;;4156172;28;20116;-70
2021/10/24 08:00:30;;;;;;;8.13;5.05;;;12.30;99.90;;;;;;4154522;28;20262;-70
2021/10/24 08:02:32;;;;;;;12.13;5.57;;;12.40;99.90;;;;;;4157515;28;20029;-70
2021/10/24 08:04:33;;;;;;;10.05;4.50;;;12.50;99.90;;;;;;4139580;28;20069;-71
2021/10/24 08:06:35;;;;;;;8.27;4.88;;;12.70;99.90;;;;;;4147617;28;20497;-71
2021/10/24 08:08:37;;;;;;;7.35;4.43;;;12.80;99.90;;;;;;4155895;28;20037;-71
2021/10/24 08:10:38;;;;;;;9.50;4.03;;;13.00;99.90;;;;;;4152026;28;20030;-71
2021/10/24 08:12:39;;;;;;;7.13;4.22;;;12.90;99.90;;;;;;4154882;28;20392;-70
2021/10/24 08:14:40;;;;;;;9.80;4.60;;;13.00;99.90;;;;;;4152260;28;20485;-70
2021/10/24 08:16:40;;;;;;;6.65;3.95;;;13.10;99.90;;;;;;4151273;28;20044;-71
2021/10/24 08:18:41;;;;;;;5.93;3.65;;;13.20;99.90;;;;;;4154171;28;20029;-70
2021/10/24 08:20:44;;;;;;;9.13;3.90;;;13.40;99.90;;;;;;4155566;28;20029;-71
2021/10/24 08:22:45;;;;;;;7.95;3.95;;;13.70;99.90;;;;;;4162032;28;20030;-70
2021/10/24 08:24:46;;;;;;;9.15;3.22;;;13.80;99.90;;;;;;4154717;28;20024;-70
2021/10/24 08:26:48;;;;;;;5.50;3.53;;;14.00;99.90;;;;;;4153380;28;20087;-71
2021/10/24 08:28:49;;;;;;;10.48;4.05;;;14.20;99.90;;;;;;4154619;28;20045;-69
2021/10/24 08:30:52;;;;;;;9.82;4.28;;;14.40;99.90;;;;;;4152965;28;20541;-69
2021/10/24 08:32:53;;;;;;;5.07;3.05;;;14.40;99.90;;;;;;4151382;28;20045;-69
2021/10/24 08:34:54;;;;;;;6.97;4.10;;;14.50;99.90;;;;;;4155255;28;20316;-69
2021/10/24 08:36:54;;;;;;;7.90;3.83;;;14.30;99.90;;;;;;4155200;28;20033;-69
2021/10/24 08:38:57;;;;;;;9.35;4.57;;;14.20;99.90;;;;;;4151763;28;20183;-70
2021/10/24 08:41:00;;;;;;;5.88;3.55;;;14.00;99.90;;;;;;4151801;28;20037;-70
2021/10/24 08:43:14;;;;;;;;;;;14.00;99.90;;;;;;4152199;28;20033;-70
2021/10/24 08:45:14;;;;;;;;;;;14.00;99.90;;;;;;4157079;28;20431;-70
2021/10/24 08:47:15;;;;;;;6.40;3.70;;;13.80;99.90;;;;;;4155302;28;19921;-70
2021/10/24 08:49:15;;;;;;;6.60;3.22;;;13.80;99.90;;;;;;4154541;28;20036;-69
2021/10/24 08:51:19;;;;;;;9.15;3.55;;;13.70;99.90;;;;;;4153589;28;20026;-70
2021/10/24 08:53:25;;;;;;;6.53;3.65;;;13.50;99.90;;;;;;4150878;28;20037;-70
2021/10/24 08:55:26;;;;;;;8.05;3.60;;;13.50;99.90;;;;;;4152539;28;20083;-70
2021/10/24 08:57:28;;;;;;;8.57;4.22;;;13.20;99.90;;;;;;4152728;28;20521;-69
2021/10/24 08:59:29;;;;;;;8.95;4.10;;;13.10;99.90;;;;;;4153848;28;20496;-69
2021/10/24 09:01:31;;;;;;;7.97;4.10;;;13.20;99.90;;;;;;4152994;28;20042;-69
2021/10/24 09:03:31;;;;;;;8.05;3.58;;;13.10;99.90;;;;;;4154668;28;20455;-69
2021/10/24 09:05:43;;;;;;;8.88;4.45;;;13.00;99.90;;;;;;4155076;28;20053;-69
2021/10/24 09:07:44;;;;;;;8.73;4.80;;;13.00;99.90;;;;;;4136740;28;20040;-69
2021/10/24 09:09:44;;;;;;;10.35;4.15;;;13.00;99.90;;;;;;4141427;28;20513;-69
2021/10/24 09:12:12;;;;;;;8.05;4.20;;;12.90;99.90;;;;;;4153934;28;20033;-70
2021/10/24 09:14:33;;;;;;;7.15;4.03;;;12.90;99.90;;;;;;4137498;28;20032;-69
2021/10/24 09:16:51;;;;;;;9.25;3.90;;;12.80;99.90;;;;;;4137581;28;20323;-70
2021/10/24 09:18:52;;;;;;;8.30;4.07;;;12.80;99.90;;;;;;4154466;28;20121;-70
2021/10/24 09:20:54;;;;;;;4.72;3.30;;;12.90;99.90;;;;;;4154600;28;20131;-70
2021/10/24 09:23:06;;;;;;;4.87;2.80;;;13.00;99.90;;;;;;4154321;28;20432;-70
2021/10/24 09:25:12;;;;;;;7.95;3.45;;;13.10;99.90;;;;;;4160265;28;20789;-70
2021/10/24 09:27:16;;;;;;;7.70;4.00;;;13.10;99.90;;;;;;4152294;28;20501;-70
2021/10/24 09:29:17;;;;;;;7.75;3.97;;;13.10;99.90;;;;;;4154876;28;20095;-70
2021/10/24 09:31:26;;;;;;;8.20;3.90;;;13.20;99.90;;;;;;4151193;28;20404;-70
2021/10/24 09:33:41;;;;;;;7.03;3.70;;;13.20;99.90;;;;;;4148928;28;20033;-70
2021/10/24 09:35:45;;;;;;;7.18;3.78;;;13.30;99.90;;;;;;4153459;28;20041;-70
2021/10/24 09:37:47;;;;;;;6.60;3.55;;;13.30;99.90;;;;;;4153324;28;20056;-70
2021/10/24 09:39:48;;;;;;;5.35;3.03;;;13.40;99.90;;;;;;4154997;28;20071;-70
2021/10/24 09:41:48;;;;;;;13.18;4.70;;;13.50;99.90;;;;;;4154321;28;20029;-70
2021/10/24 09:43:49;;;;;;;8.23;3.97;;;13.40;99.90;;;;;;4151423;28;20175;-69
2021/10/24 09:46:10;;;;;;;7.13;3.80;;;13.40;99.90;;;;;;4153743;28;20037;-69
2021/10/24 09:48:19;;;;;;;7.85;3.97;;;13.50;99.90;;;;;;4153122;28;20136;-70
2021/10/24 09:50:33;;;;;;;10.25;4.03;;;13.50;99.90;;;;;;4177619;28;20059;-70
2021/10/24 09:52:35;;;;;;;7.03;3.35;;;13.30;99.90;;;;;;4153908;28;20102;-70
2021/10/24 09:54:47;;;;;;;7.07;4.03;;;13.40;99.90;;;;;;4153133;28;20405;-70
2021/10/24 09:56:49;;;;;;;6.82;3.08;;;13.40;99.90;;;;;;4153936;28;20045;-69
2021/10/24 09:58:53;;;;;;;12.52;3.85;;;13.50;99.90;;;;;;4156136;28;20561;-69
2021/10/24 10:00:54;;;;;;;6.97;3.40;;;13.40;99.90;;;;;;4154196;28;20065;-70
2021/10/24 10:02:55;;;;;;;8.98;4.15;;;13.40;99.90;;;;;;4153839;28;20029;-70
2021/10/24 10:04:58;;;;;;;6.47;3.50;;;13.30;99.90;;;;;;4151182;28;20044;-69
2021/10/24 10:06:58;;;;;;;9.18;4.88;;;13.30;99.90;;;;;;4149696;28;20064;-69
2021/10/24 10:08:59;;;;;;;9.20;4.25;;;13.30;99.90;;;;;;4153843;28;20037;-69
2021/10/24 10:11:05;;;;;;;10.40;4.53;;;13.30;99.90;;;;;;4152514;28;20067;-69
2021/10/24 10:13:12;;;;;;;10.23;4.80;;;13.20;99.90;;;;;;4152362;28;20045;-69
2021/10/24 10:15:14;;;;;;;11.00;4.45;;;13.20;99.90;;;;;;4150793;28;20041;-69
2021/10/24 10:17:22;;;;;;;9.63;4.82;;;13.30;99.90;;;;;;4152653;28;20553;-69
2021/10/24 10:19:33;;;;;;;8.27;4.10;;;13.40;99.90;;;;;;4151674;28;20408;-69
2021/10/24 10:21:42;;;;;;;6.35;3.40;;;13.30;99.90;;;;;;4152151;28;20329;-69
2021/10/24 10:23:43;;;;;;;9.05;4.00;;;13.30;99.90;;;;;;4148891;28;20038;-69
2021/10/24 10:25:45;;;;;;;9.07;4.35;;;13.30;99.90;;;;;;4152753;28;20116;-69
2021/10/24 10:27:45;;;;;;;9.35;3.45;;;13.40;99.90;;;;;;4151098;28;20051;-69
2021/10/24 10:29:52;;;;;;;6.60;3.75;;;13.40;99.90;;;;;;4152822;28;20073;-69
2021/10/24 10:32:16;;;;;;;6.97;4.40;;;13.40;99.90;;;;;;4153014;28;20045;-69
2021/10/24 10:34:17;;;;;;;6.75;3.50;;;13.50;99.90;;;;;;4152788;28;20115;-69
2021/10/24 10:36:17;;;;;;;6.40;3.10;;;13.50;99.90;;;;;;4153063;28;20059;-69
2021/10/24 10:38:41;;;;;;;5.45;2.88;;;13.60;99.90;;;;;;4152937;28;20025;-69